createdAt,value
2018-10-01T00:18:20.333Z,2.03
2018-10-01T00:20:54.337Z,2.83
2018-10-01T00:40:44.890Z,2.00
2018-10-01T00:43:13.434Z,1.97
2018-10-01T00:45:41.864Z,2.27
2018-10-01T00:48:11.005Z,2.00
2018-10-01T00:50:39.860Z,2.33
2018-10-01T00:53:08.348Z,1.70
2018-10-01T00:55:36.815Z,2.37
2018-10-01T00:58:05.450Z,1.70
2018-10-01T01:00:34.885Z,1.90
2018-10-01T01:03:03.452Z,1.70
2018-10-01T01:05:31.977Z,1.80
2018-10-01T01:08:00.329Z,1.80
2018-10-01T01:10:29.338Z,2.00
2018-10-01T01:12:57.808Z,1.67
2018-10-01T01:15:26.346Z,2.00
2018-10-01T01:17:55.798Z,1.77
2018-10-01T01:20:24.299Z,1.80
2018-10-01T01:40:14.774Z,2.20
2018-10-01T01:42:44.563Z,2.20
2018-10-01T02:02:37.877Z,2.37
2018-10-01T02:05:06.474Z,2.23
2018-10-01T02:07:34.986Z,2.40
2018-10-01T02:10:04.094Z,2.40
2018-10-01T02:12:32.553Z,1.90
2018-10-01T02:15:01.041Z,2.33
2018-10-01T02:17:30.585Z,2.13
2018-10-01T02:19:59.077Z,2.27
2018-10-01T02:22:28.214Z,2.43
2018-10-01T02:24:56.723Z,1.93
2018-10-01T02:27:26.201Z,2.03
2018-10-01T02:29:54.702Z,1.83
2018-10-01T02:32:23.237Z,2.10
2018-10-01T02:34:51.908Z,2.20
2018-10-01T02:37:21.214Z,1.80
2018-10-01T02:39:49.774Z,1.73
2018-10-01T02:42:18.284Z,1.90
2018-10-01T02:44:46.833Z,1.70
2018-10-01T02:47:15.759Z,1.60
2018-10-01T02:49:45.170Z,1.60
2018-10-01T02:52:19.318Z,1.60
2018-10-01T03:12:09.508Z,1.80
2018-10-01T03:14:39.073Z,1.97
2018-10-01T03:17:08.445Z,2.30
2018-10-01T03:19:36.952Z,2.30
2018-10-01T03:22:06.042Z,2.47
2018-10-01T03:24:34.494Z,2.80
2018-10-01T03:27:03.093Z,3.20
2018-10-01T03:29:31.794Z,3.30
2018-10-01T03:32:00.365Z,3.53
2018-10-01T03:34:28.960Z,3.60
2018-10-01T03:36:57.561Z,4.00
2018-10-01T03:39:26.299Z,4.20
2018-10-01T03:59:16.534Z,5.27
2018-10-01T04:01:45.071Z,5.10
2018-10-01T04:04:13.469Z,5.50
2018-10-01T04:06:42.087Z,5.70
2018-10-01T04:09:10.737Z,6.03
2018-10-01T04:11:39.339Z,6.13
2018-10-01T04:14:09.478Z,5.97
2018-10-01T04:16:39.479Z,5.47
2018-10-01T04:19:08.053Z,5.90
2018-10-01T04:21:36.657Z,6.70
2018-10-01T04:24:05.323Z,6.10
2018-10-01T04:26:33.943Z,6.17
2018-10-01T04:29:03.150Z,6.00
2018-10-01T04:31:31.930Z,6.73
2018-10-01T04:34:00.411Z,6.80
2018-10-01T04:36:29.018Z,7.43
2018-10-01T04:38:58.377Z,7.00
2018-10-01T04:41:28.158Z,6.63
2018-10-01T05:01:17.765Z,6.40
2018-10-01T05:21:07.392Z,7.50
2018-10-01T05:23:36.546Z,6.37
2018-10-01T05:26:05.599Z,7.43
2018-10-01T05:28:34.110Z,6.90
2018-10-01T05:31:02.764Z,6.83
2018-10-01T05:33:31.219Z,7.70
2018-10-01T05:53:21.019Z,6.03
2018-10-01T05:55:49.416Z,5.60
2018-10-01T05:58:18.760Z,6.57
2018-10-01T06:00:47.254Z,4.93
2018-10-01T06:03:15.839Z,5.47
2018-10-01T06:05:44.365Z,5.53
2018-10-01T06:08:13.359Z,5.77
2018-10-01T06:10:42.312Z,5.40
2018-10-01T06:13:11.306Z,5.87
2018-10-01T06:15:40.328Z,6.00
2018-10-01T06:18:10.545Z,4.87
2018-10-01T06:20:38.956Z,5.17
2018-10-01T06:23:07.417Z,5.10
2018-10-01T06:25:36.802Z,5.40
2018-10-01T06:28:05.399Z,4.97
2018-10-01T06:30:35.073Z,5.60
2018-10-01T06:33:03.493Z,5.10
2018-10-01T06:35:32.713Z,4.97
2018-10-01T06:38:01.385Z,5.73
2018-10-01T06:40:29.890Z,5.13
2018-10-01T06:42:58.280Z,5.70
2018-10-01T06:45:27.473Z,5.30
2018-10-01T06:47:55.897Z,5.90
2018-10-01T06:50:24.444Z,5.33
2018-10-01T06:52:52.946Z,5.93
2018-10-01T06:55:22.002Z,5.57
2018-10-01T06:57:51.951Z,5.20
2018-10-01T07:00:20.601Z,5.40
2018-10-01T07:02:48.992Z,5.00
2018-10-01T07:05:17.486Z,5.00
2018-10-01T07:07:46.474Z,6.73
2018-10-01T07:10:15.957Z,4.70
2018-10-01T07:30:06.300Z,5.87
2018-10-01T07:32:34.814Z,5.03
2018-10-01T07:35:03.286Z,5.40
2018-10-01T07:37:32.765Z,5.73
2018-10-01T07:40:01.224Z,5.90
2018-10-01T07:59:51.547Z,7.13
2018-10-01T08:02:20.082Z,7.27
2018-10-01T08:04:48.634Z,7.40
2018-10-01T08:07:17.825Z,6.90
2018-10-01T08:09:46.899Z,7.60
2018-10-01T08:12:15.657Z,8.73
2018-10-01T08:14:44.185Z,8.17
2018-10-01T08:17:12.685Z,8.90
2018-10-01T08:19:41.189Z,8.50
2018-10-01T08:22:09.741Z,9.20
2018-10-01T08:24:38.262Z,9.47
2018-10-01T08:27:07.068Z,9.63
2018-10-01T08:29:35.654Z,10.03
2018-10-01T08:32:04.251Z,11.50
2018-10-01T08:34:33.401Z,10.60
2018-10-01T08:37:01.973Z,11.13
2018-10-01T08:39:30.510Z,10.80
2018-10-01T08:59:19.834Z,10.30
2018-10-01T09:01:48.869Z,12.10
2018-10-01T09:04:17.367Z,12.37
2018-10-01T09:24:07.146Z,11.70
2018-10-01T09:26:35.739Z,12.33
2018-10-01T09:29:04.892Z,12.90
2018-10-01T09:31:34.350Z,12.97
2018-10-01T09:34:03.089Z,13.07
2018-10-01T09:36:31.555Z,13.10
2018-10-01T09:39:00.086Z,12.47
2018-10-01T09:41:30.568Z,12.77
2018-10-01T09:43:59.132Z,11.07
2018-10-01T09:46:28.052Z,10.77
2018-10-01T10:06:17.418Z,10.43
2018-10-01T10:08:46.088Z,10.57
2018-10-01T10:11:16.039Z,11.00
2018-10-01T10:13:44.582Z,11.57
2018-10-01T10:16:13.251Z,12.13
2018-10-01T10:18:42.813Z,10.47
2018-10-01T10:21:11.351Z,9.83
2018-10-01T10:23:40.005Z,9.97
2018-10-01T10:26:09.254Z,11.00
2018-10-01T10:28:38.296Z,10.27
2018-10-01T10:31:07.210Z,11.40
2018-10-01T10:33:35.721Z,9.97
2018-10-01T10:36:04.810Z,9.73
2018-10-01T10:38:33.917Z,10.30
2018-10-01T10:41:02.308Z,10.33
2018-10-01T10:43:30.774Z,9.43
2018-10-01T10:46:00.256Z,9.30
2018-10-01T10:48:29.498Z,9.70
2018-10-01T10:50:58.031Z,10.13
2018-10-01T11:10:47.411Z,10.03
2018-10-01T11:13:16.005Z,9.60
2018-10-01T11:15:45.464Z,10.53
2018-10-01T11:18:14.232Z,11.47
2018-10-01T11:20:43.399Z,10.17
2018-10-01T11:23:12.669Z,10.05
2018-10-01T11:25:41.310Z,10.10
2018-10-01T11:28:09.814Z,10.33
2018-10-01T11:30:38.834Z,10.20
2018-10-01T11:33:07.720Z,10.73
2018-10-01T11:35:36.299Z,11.10
2018-10-01T11:38:04.766Z,11.07
2018-10-01T11:40:33.593Z,11.77
2018-10-01T11:43:02.017Z,11.37
2018-10-01T11:45:32.128Z,11.00
2018-10-01T11:48:01.355Z,12.20
2018-10-01T11:50:29.785Z,11.50
2018-10-01T11:52:58.945Z,11.17
2018-10-01T11:55:27.561Z,11.60
2018-10-01T11:57:56.099Z,12.13
2018-10-01T12:00:24.598Z,12.63
2018-10-01T12:02:53.254Z,12.90
2018-10-01T12:05:21.826Z,12.97
2018-10-01T12:07:50.606Z,12.20
2018-10-01T12:10:19.165Z,11.83
2018-10-01T12:12:48.616Z,11.23
2018-10-01T12:15:17.230Z,12.10
2018-10-01T12:17:47.010Z,12.30
2018-10-01T12:20:15.608Z,12.77
2018-10-01T12:40:05.837Z,14.60
2018-10-01T12:42:35.929Z,14.10
2018-10-01T12:45:04.591Z,14.13
2018-10-01T12:47:33.106Z,18.70
2018-10-01T12:50:03.029Z,14.10
2018-10-01T12:52:31.545Z,13.70
2018-10-01T12:55:00.359Z,14.10
2018-10-01T13:14:51.608Z,28.07
2018-10-01T13:17:20.307Z,30.07
2018-10-01T13:19:49.139Z,29.10
2018-10-01T13:39:39.130Z,26.53
2018-10-01T13:42:08.404Z,26.27
2018-10-01T13:44:38.359Z,26.03
2018-10-01T13:47:06.873Z,25.87
2018-10-01T13:49:35.414Z,27.67
2018-10-01T13:52:04.602Z,26.33
2018-10-01T13:54:33.545Z,25.53
2018-10-01T13:57:02.011Z,26.90
2018-10-01T13:59:30.559Z,27.73
2018-10-01T14:19:20.573Z,31.43
2018-10-01T14:21:48.980Z,30.87
2018-10-01T14:24:18.419Z,29.97
2018-10-01T14:26:48.730Z,29.27
2018-10-01T14:29:17.281Z,28.67
2018-10-01T14:49:07.046Z,25.90
2018-10-01T14:51:35.644Z,27.33
2018-10-01T15:11:26.219Z,25.40
2018-10-01T15:13:54.726Z,26.40
2018-10-01T15:16:23.255Z,25.17
2018-10-01T15:18:51.837Z,26.80
2018-10-01T15:21:20.354Z,24.27
2018-10-01T15:23:48.885Z,25.93
2018-10-01T15:26:17.376Z,23.47
2018-10-01T15:28:46.345Z,25.90
2018-10-01T15:31:15.485Z,24.43
2018-10-01T15:33:44.803Z,22.97
2018-10-01T15:36:14.296Z,24.50
2018-10-01T15:38:43.623Z,26.00
2018-10-01T15:41:12.374Z,25.00
2018-10-01T15:43:41.510Z,23.10
2018-10-01T16:03:32.406Z,23.20
2018-10-01T16:06:02.083Z,20.80
2018-10-01T16:08:30.506Z,23.17
2018-10-01T16:10:59.246Z,21.60
2018-10-01T16:13:27.727Z,23.07
2018-10-01T16:15:56.386Z,21.60
2018-10-01T16:18:25.010Z,22.57
2018-10-01T16:20:53.553Z,22.53
2018-10-01T16:23:22.123Z,19.90
2018-10-01T16:25:50.797Z,21.50
2018-10-01T16:45:40.249Z,19.67
2018-10-01T16:48:10.886Z,20.33
2018-10-01T16:50:39.545Z,19.37
2018-10-01T16:53:08.492Z,20.57
2018-10-01T17:12:58.530Z,20.57
2018-10-01T17:15:27.000Z,19.33
2018-10-01T17:17:56.001Z,18.67
2018-10-01T17:20:24.565Z,20.53
2018-10-01T17:22:53.143Z,20.43
2018-10-01T17:25:23.053Z,21.77
2018-10-01T17:27:52.343Z,21.23
2018-10-01T17:30:21.056Z,19.37
2018-10-01T17:32:50.819Z,19.67
2018-10-01T17:35:20.122Z,19.87
2018-10-01T17:37:49.213Z,20.83
2018-10-01T17:40:18.311Z,20.17
2018-10-01T17:42:46.858Z,19.33
2018-10-01T18:02:36.273Z,19.43
2018-10-01T18:05:06.590Z,19.87
2018-10-01T18:07:35.050Z,19.73
2018-10-01T18:10:03.883Z,19.33
2018-10-01T18:12:32.742Z,20.13
2018-10-01T18:15:01.584Z,20.80
2018-10-01T18:17:30.567Z,20.63
2018-10-01T18:19:59.555Z,20.60
2018-10-01T18:22:28.918Z,19.90
2018-10-01T18:24:57.501Z,21.23
2018-10-01T18:44:47.329Z,19.77
2018-10-01T18:47:15.812Z,19.60
2018-10-01T18:49:44.475Z,24.30
2018-10-01T19:09:35.644Z,20.93
2018-10-01T19:12:04.225Z,18.43
2018-10-01T19:14:32.710Z,19.33
2018-10-01T19:17:01.437Z,18.97
2018-10-01T19:19:31.437Z,19.60
2018-10-01T19:22:00.837Z,22.05
2018-10-01T19:24:29.466Z,19.90
2018-10-01T19:26:57.986Z,19.00
2018-10-01T19:29:26.495Z,19.57
2018-10-01T19:31:55.946Z,18.43
2018-10-01T19:51:45.473Z,19.47
2018-10-01T19:54:14.739Z,20.27
2018-10-01T19:56:43.366Z,19.70
2018-10-01T20:16:32.903Z,16.80
2018-10-01T20:19:02.107Z,16.10
2018-10-01T20:21:32.144Z,15.20
2018-10-01T20:24:01.255Z,18.77
2018-10-01T20:43:50.926Z,17.97
2018-10-01T20:46:19.567Z,17.03
2018-10-01T20:48:48.093Z,16.93
2018-10-01T20:51:17.221Z,16.83
2018-10-01T20:53:45.944Z,16.13
2018-10-01T20:56:15.252Z,16.50
2018-10-01T20:58:44.976Z,16.23
2018-10-01T21:01:13.908Z,15.63
2018-10-01T21:03:42.375Z,14.10
2018-10-01T21:06:10.814Z,15.23
2018-10-01T21:08:39.634Z,14.00
2018-10-01T21:11:08.138Z,14.13
2018-10-01T21:13:36.631Z,13.63
2018-10-01T21:16:05.526Z,14.63
2018-10-01T21:18:35.052Z,14.23
2018-10-01T21:38:24.911Z,12.93
2018-10-01T21:40:53.362Z,9.77
2018-10-01T22:00:49.252Z,8.13
2018-10-01T22:03:18.633Z,8.03
2018-10-01T22:05:47.098Z,8.93
2018-10-01T22:08:15.890Z,8.60
2018-10-01T22:10:44.405Z,9.87
2018-10-01T22:13:12.814Z,8.87
2018-10-01T22:33:02.935Z,8.10
2018-10-01T22:52:52.321Z,6.73
2018-10-01T22:55:20.890Z,7.20
2018-10-01T22:57:49.410Z,5.70
2018-10-01T23:00:18.561Z,6.50
2018-10-01T23:02:47.416Z,4.90
2018-10-01T23:05:15.902Z,5.43
2018-10-01T23:07:44.396Z,5.43
2018-10-01T23:27:35.096Z,6.00
2018-10-01T23:30:03.858Z,5.30
2018-10-01T23:32:32.313Z,6.37
2018-10-01T23:35:00.921Z,5.37
2018-10-01T23:37:30.165Z,5.43
2018-10-01T23:39:58.681Z,5.70
2018-10-01T23:59:49.357Z,4.17
